sensor_id;sensor_type;location;lat;lon;timestamp;P1;durP1;ratioP1;P2;durP2;ratioP2
64375;SDS011;50700;55.416;12.952;2022-10-16T00:00:33;20.05;;;10.63;;
64375;SDS011;50700;55.416;12.952;2022-10-16T00:03:00;23.40;;;11.15;;
64375;SDS011;50700;55.416;12.952;2022-10-16T00:05:27;20.67;;;10.45;;
64375;SDS011;50700;55.416;12.952;2022-10-16T00:07:53;22.83;;;10.48;;
64375;SDS011;50700;55.416;12.952;2022-10-16T00:10:19;24.77;;;11.73;;
64375;SDS011;50700;55.416;12.952;2022-10-16T00:12:45;19.35;;;10.38;;
64375;SDS011;50700;55.416;12.952;2022-10-16T00:15:11;22.13;;;11.40;;
64375;SDS011;50700;55.416;12.952;2022-10-16T00:17:37;17.30;;;10.27;;
64375;SDS011;50700;55.416;12.952;2022-10-16T00:20:04;20.42;;;10.95;;
64375;SDS011;50700;55.416;12.952;2022-10-16T00:22:30;20.40;;;10.75;;
64375;SDS011;50700;55.416;12.952;2022-10-16T00:24:56;26.60;;;12.13;;
64375;SDS011;50700;55.416;12.952;2022-10-16T00:27:22;24.70;;;10.85;;
64375;SDS011;50700;55.416;12.952;2022-10-16T00:29:49;22.55;;;11.63;;
64375;SDS011;50700;55.416;12.952;2022-10-16T00:32:16;22.60;;;10.32;;
64375;SDS011;50700;55.416;12.952;2022-10-16T00:34:43;22.73;;;11.02;;
64375;SDS011;50700;55.416;12.952;2022-10-16T00:37:09;23.95;;;10.77;;
64375;SDS011;50700;55.416;12.952;2022-10-16T00:39:35;21.00;;;10.68;;
64375;SDS011;50700;55.416;12.952;2022-10-16T00:42:02;20.67;;;10.43;;
64375;SDS011;50700;55.416;12.952;2022-10-16T00:47:26;22.67;;;10.73;;
64375;SDS011;50700;55.416;12.952;2022-10-16T00:49:55;22.45;;;11.70;;
64375;SDS011;50700;55.416;12.952;2022-10-16T00:52:22;22.05;;;10.73;;
64375;SDS011;50700;55.416;12.952;2022-10-16T00:54:48;23.63;;;11.95;;
64375;SDS011;50700;55.416;12.952;2022-10-16T00:57:15;23.10;;;11.38;;
64375;SDS011;50700;55.416;12.952;2022-10-16T00:59:41;22.50;;;11.68;;
64375;SDS011;50700;55.416;12.952;2022-10-16T01:02:09;19.83;;;10.93;;
64375;SDS011;50700;55.416;12.952;2022-10-16T01:04:37;24.20;;;11.60;;
64375;SDS011;50700;55.416;12.952;2022-10-16T01:15:06;23.50;;;11.50;;
64375;SDS011;50700;55.416;12.952;2022-10-16T01:17:36;28.15;;;11.82;;
64375;SDS011;50700;55.416;12.952;2022-10-16T01:20:10;26.55;;;12.52;;
64375;SDS011;50700;55.416;12.952;2022-10-16T01:22:48;25.80;;;13.20;;
64375;SDS011;50700;55.416;12.952;2022-10-16T01:28:05;28.85;;;11.40;;
64375;SDS011;50700;55.416;12.952;2022-10-16T01:30:33;28.63;;;13.25;;
64375;SDS011;50700;55.416;12.952;2022-10-16T01:33:02;27.45;;;12.23;;
64375;SDS011;50700;55.416;12.952;2022-10-16T01:35:32;29.30;;;12.35;;
64375;SDS011;50700;55.416;12.952;2022-10-16T01:38:17;20.77;;;11.43;;
64375;SDS011;50700;55.416;12.952;2022-10-16T01:40:46;27.30;;;11.90;;
64375;SDS011;50700;55.416;12.952;2022-10-16T01:43:16;25.17;;;12.23;;
64375;SDS011;50700;55.416;12.952;2022-10-16T01:45:44;24.23;;;12.07;;
64375;SDS011;50700;55.416;12.952;2022-10-16T01:48:12;27.10;;;12.00;;
64375;SDS011;50700;55.416;12.952;2022-10-16T01:50:39;21.10;;;10.82;;
64375;SDS011;50700;55.416;12.952;2022-10-16T01:53:08;23.38;;;9.60;;
64375;SDS011;50700;55.416;12.952;2022-10-16T01:55:36;16.88;;;8.90;;
64375;SDS011;50700;55.416;12.952;2022-10-16T01:58:04;17.55;;;9.52;;
64375;SDS011;50700;55.416;12.952;2022-10-16T02:00:32;18.85;;;9.07;;
64375;SDS011;50700;55.416;12.952;2022-10-16T02:02:59;16.05;;;8.50;;
64375;SDS011;50700;55.416;12.952;2022-10-16T02:07:53;17.05;;;8.80;;
64375;SDS011;50700;55.416;12.952;2022-10-16T02:10:20;14.90;;;8.18;;
64375;SDS011;50700;55.416;12.952;2022-10-16T02:12:52;16.42;;;7.97;;
64375;SDS011;50700;55.416;12.952;2022-10-16T02:15:20;16.15;;;7.15;;
64375;SDS011;50700;55.416;12.952;2022-10-16T02:17:47;15.10;;;6.88;;
64375;SDS011;50700;55.416;12.952;2022-10-16T02:20:13;12.85;;;6.85;;
64375;SDS011;50700;55.416;12.952;2022-10-16T02:22:40;14.77;;;6.75;;
64375;SDS011;50700;55.416;12.952;2022-10-16T02:28:03;13.20;;;6.45;;
64375;SDS011;50700;55.416;12.952;2022-10-16T02:33:27;14.15;;;6.95;;
64375;SDS011;50700;55.416;12.952;2022-10-16T02:35:55;17.35;;;7.05;;
64375;SDS011;50700;55.416;12.952;2022-10-16T02:38:21;14.73;;;7.22;;
64375;SDS011;50700;55.416;12.952;2022-10-16T02:40:48;11.88;;;6.90;;
64375;SDS011;50700;55.416;12.952;2022-10-16T02:43:15;14.73;;;7.70;;
64375;SDS011;50700;55.416;12.952;2022-10-16T02:45:41;15.50;;;7.68;;
64375;SDS011;50700;55.416;12.952;2022-10-16T02:48:08;12.52;;;6.72;;
64375;SDS011;50700;55.416;12.952;2022-10-16T02:50:34;14.85;;;6.78;;
64375;SDS011;50700;55.416;12.952;2022-10-16T02:53:00;15.30;;;6.82;;
64375;SDS011;50700;55.416;12.952;2022-10-16T02:55:26;14.23;;;6.90;;
64375;SDS011;50700;55.416;12.952;2022-10-16T02:57:53;12.75;;;6.40;;
64375;SDS011;50700;55.416;12.952;2022-10-16T03:00:19;11.65;;;5.97;;
64375;SDS011;50700;55.416;12.952;2022-10-16T03:02:46;8.35;;;5.63;;
64375;SDS011;50700;55.416;12.952;2022-10-16T03:05:12;11.80;;;5.60;;
64375;SDS011;50700;55.416;12.952;2022-10-16T03:07:38;11.05;;;5.10;;
64375;SDS011;50700;55.416;12.952;2022-10-16T03:10:05;9.52;;;4.80;;
64375;SDS011;50700;55.416;12.952;2022-10-16T03:12:31;10.35;;;4.65;;
64375;SDS011;50700;55.416;12.952;2022-10-16T03:14:57;8.88;;;4.57;;
64375;SDS011;50700;55.416;12.952;2022-10-16T03:17:24;11.18;;;5.28;;
64375;SDS011;50700;55.416;12.952;2022-10-16T03:19:50;8.85;;;5.60;;
64375;SDS011;50700;55.416;12.952;2022-10-16T03:22:17;10.13;;;4.28;;
64375;SDS011;50700;55.416;12.952;2022-10-16T03:24:43;10.48;;;4.28;;
64375;SDS011;50700;55.416;12.952;2022-10-16T03:27:09;9.48;;;4.45;;
64375;SDS011;50700;55.416;12.952;2022-10-16T03:29:35;7.10;;;4.32;;
64375;SDS011;50700;55.416;12.952;2022-10-16T03:32:01;10.77;;;4.57;;
64375;SDS011;50700;55.416;12.952;2022-10-16T03:34:28;7.95;;;4.20;;
64375;SDS011;50700;55.416;12.952;2022-10-16T03:36:54;8.70;;;4.63;;
64375;SDS011;50700;55.416;12.952;2022-10-16T03:39:21;11.73;;;4.80;;
64375;SDS011;50700;55.416;12.952;2022-10-16T03:41:47;11.65;;;5.45;;
64375;SDS011;50700;55.416;12.952;2022-10-16T03:44:13;10.52;;;5.30;;
64375;SDS011;50700;55.416;12.952;2022-10-16T03:46:39;13.80;;;5.57;;
64375;SDS011;50700;55.416;12.952;2022-10-16T03:49:05;9.57;;;5.60;;
64375;SDS011;50700;55.416;12.952;2022-10-16T03:51:31;13.48;;;5.15;;
64375;SDS011;50700;55.416;12.952;2022-10-16T03:53:58;11.48;;;6.32;;
64375;SDS011;50700;55.416;12.952;2022-10-16T03:56:24;10.02;;;5.18;;
64375;SDS011;50700;55.416;12.952;2022-10-16T03:58:50;14.77;;;5.88;;
64375;SDS011;50700;55.416;12.952;2022-10-16T04:01:16;14.35;;;6.72;;
64375;SDS011;50700;55.416;12.952;2022-10-16T04:03:42;12.95;;;5.82;;
64375;SDS011;50700;55.416;12.952;2022-10-16T04:06:09;10.32;;;5.50;;
64375;SDS011;50700;55.416;12.952;2022-10-16T04:08:35;18.30;;;5.45;;
64375;SDS011;50700;55.416;12.952;2022-10-16T04:11:02;9.07;;;4.97;;
64375;SDS011;50700;55.416;12.952;2022-10-16T04:13:29;10.45;;;4.55;;
64375;SDS011;50700;55.416;12.952;2022-10-16T04:15:55;7.22;;;4.57;;
64375;SDS011;50700;55.416;12.952;2022-10-16T04:18:21;10.18;;;4.82;;
64375;SDS011;50700;55.416;12.952;2022-10-16T04:20:48;7.68;;;4.32;;
64375;SDS011;50700;55.416;12.952;2022-10-16T04:23:14;13.50;;;4.40;;
64375;SDS011;50700;55.416;12.952;2022-10-16T04:25:40;10.50;;;5.15;;
64375;SDS011;50700;55.416;12.952;2022-10-16T04:28:07;16.88;;;4.20;;
64375;SDS011;50700;55.416;12.952;2022-10-16T04:30:33;11.13;;;4.22;;
64375;SDS011;50700;55.416;12.952;2022-10-16T04:32:59;7.18;;;3.75;;
64375;SDS011;50700;55.416;12.952;2022-10-16T04:35:25;8.90;;;4.03;;
64375;SDS011;50700;55.416;12.952;2022-10-16T04:37:51;8.18;;;4.03;;
64375;SDS011;50700;55.416;12.952;2022-10-16T04:40:17;9.68;;;3.80;;
64375;SDS011;50700;55.416;12.952;2022-10-16T04:42:44;7.68;;;3.42;;
64375;SDS011;50700;55.416;12.952;2022-10-16T04:45:10;9.45;;;3.85;;
64375;SDS011;50700;55.416;12.952;2022-10-16T04:47:36;9.60;;;4.40;;
64375;SDS011;50700;55.416;12.952;2022-10-16T04:50:03;7.43;;;3.28;;
64375;SDS011;50700;55.416;12.952;2022-10-16T04:52:29;5.47;;;3.35;;
64375;SDS011;50700;55.416;12.952;2022-10-16T04:54:57;7.72;;;3.55;;
64375;SDS011;50700;55.416;12.952;2022-10-16T04:57:26;12.20;;;4.30;;
64375;SDS011;50700;55.416;12.952;2022-10-16T04:59:52;10.90;;;3.22;;
64375;SDS011;50700;55.416;12.952;2022-10-16T05:02:19;7.47;;;3.65;;
64375;SDS011;50700;55.416;12.952;2022-10-16T05:04:45;7.47;;;2.92;;
64375;SDS011;50700;55.416;12.952;2022-10-16T05:07:11;7.07;;;2.88;;
64375;SDS011;50700;55.416;12.952;2022-10-16T05:09:37;6.63;;;2.97;;
64375;SDS011;50700;55.416;12.952;2022-10-16T05:12:04;5.38;;;3.15;;
64375;SDS011;50700;55.416;12.952;2022-10-16T05:14:30;11.90;;;3.00;;
64375;SDS011;50700;55.416;12.952;2022-10-16T05:16:56;8.63;;;3.10;;
64375;SDS011;50700;55.416;12.952;2022-10-16T05:19:22;9.90;;;2.85;;
64375;SDS011;50700;55.416;12.952;2022-10-16T05:21:49;4.97;;;3.17;;
64375;SDS011;50700;55.416;12.952;2022-10-16T05:24:15;7.40;;;3.03;;
64375;SDS011;50700;55.416;12.952;2022-10-16T05:26:41;9.80;;;3.03;;
64375;SDS011;50700;55.416;12.952;2022-10-16T05:29:08;6.03;;;2.83;;
64375;SDS011;50700;55.416;12.952;2022-10-16T05:31:34;10.65;;;3.45;;
64375;SDS011;50700;55.416;12.952;2022-10-16T05:34:01;6.28;;;2.90;;
64375;SDS011;50700;55.416;12.952;2022-10-16T05:36:27;6.38;;;3.13;;
64375;SDS011;50700;55.416;12.952;2022-10-16T05:38:54;5.50;;;2.70;;
64375;SDS011;50700;55.416;12.952;2022-10-16T05:41:20;8.02;;;3.10;;
64375;SDS011;50700;55.416;12.952;2022-10-16T05:43:50;11.55;;;3.20;;
64375;SDS011;50700;55.416;12.952;2022-10-16T05:46:16;7.78;;;3.42;;
64375;SDS011;50700;55.416;12.952;2022-10-16T05:48:42;5.47;;;2.75;;
64375;SDS011;50700;55.416;12.952;2022-10-16T05:51:09;8.85;;;3.33;;
64375;SDS011;50700;55.416;12.952;2022-10-16T05:53:36;4.05;;;2.65;;
64375;SDS011;50700;55.416;12.952;2022-10-16T05:56:03;6.22;;;2.90;;
64375;SDS011;50700;55.416;12.952;2022-10-16T05:58:30;8.80;;;3.22;;
64375;SDS011;50700;55.416;12.952;2022-10-16T06:01:01;12.07;;;3.63;;
64375;SDS011;50700;55.416;12.952;2022-10-16T06:03:27;8.70;;;2.85;;
64375;SDS011;50700;55.416;12.952;2022-10-16T06:05:53;9.40;;;3.67;;
64375;SDS011;50700;55.416;12.952;2022-10-16T06:08:20;7.07;;;3.30;;
64375;SDS011;50700;55.416;12.952;2022-10-16T06:10:47;8.77;;;3.10;;
64375;SDS011;50700;55.416;12.952;2022-10-16T06:13:13;6.63;;;3.35;;
64375;SDS011;50700;55.416;12.952;2022-10-16T06:15:40;6.05;;;3.08;;
64375;SDS011;50700;55.416;12.952;2022-10-16T06:18:07;7.13;;;3.47;;
64375;SDS011;50700;55.416;12.952;2022-10-16T06:20:33;9.73;;;3.58;;
64375;SDS011;50700;55.416;12.952;2022-10-16T06:23:00;7.75;;;3.70;;
64375;SDS011;50700;55.416;12.952;2022-10-16T06:25:26;9.95;;;4.13;;
64375;SDS011;50700;55.416;12.952;2022-10-16T06:27:53;7.00;;;4.03;;
64375;SDS011;50700;55.416;12.952;2022-10-16T06:30:19;9.60;;;3.33;;
64375;SDS011;50700;55.416;12.952;2022-10-16T06:32:45;8.02;;;3.53;;
64375;SDS011;50700;55.416;12.952;2022-10-16T06:35:11;6.18;;;3.80;;
64375;SDS011;50700;55.416;12.952;2022-10-16T06:37:37;14.32;;;3.70;;
64375;SDS011;50700;55.416;12.952;2022-10-16T06:40:03;10.23;;;3.22;;
64375;SDS011;50700;55.416;12.952;2022-10-16T06:42:30;9.38;;;3.58;;
64375;SDS011;50700;55.416;12.952;2022-10-16T06:44:56;9.40;;;3.55;;
64375;SDS011;50700;55.416;12.952;2022-10-16T06:47:22;10.70;;;3.33;;
64375;SDS011;50700;55.416;12.952;2022-10-16T06:49:48;11.77;;;4.28;;
64375;SDS011;50700;55.416;12.952;2022-10-16T06:52:15;7.05;;;3.50;;
64375;SDS011;50700;55.416;12.952;2022-10-16T06:54:41;8.23;;;3.20;;
64375;SDS011;50700;55.416;12.952;2022-10-16T06:57:07;5.93;;;3.10;;
64375;SDS011;50700;55.416;12.952;2022-10-16T06:59:33;5.88;;;2.92;;
64375;SDS011;50700;55.416;12.952;2022-10-16T07:02:00;5.15;;;3.40;;
64375;SDS011;50700;55.416;12.952;2022-10-16T07:04:26;10.98;;;3.05;;
64375;SDS011;50700;55.416;12.952;2022-10-16T07:06:52;7.70;;;2.80;;
64375;SDS011;50700;55.416;12.952;2022-10-16T07:09:18;5.07;;;3.05;;
64375;SDS011;50700;55.416;12.952;2022-10-16T07:11:45;6.72;;;3.50;;
64375;SDS011;50700;55.416;12.952;2022-10-16T07:14:17;8.43;;;3.95;;
64375;SDS011;50700;55.416;12.952;2022-10-16T07:16:44;8.40;;;3.33;;
64375;SDS011;50700;55.416;12.952;2022-10-16T07:19:10;7.50;;;2.80;;
64375;SDS011;50700;55.416;12.952;2022-10-16T07:21:39;7.18;;;2.97;;
64375;SDS011;50700;55.416;12.952;2022-10-16T07:24:06;6.32;;;2.75;;
64375;SDS011;50700;55.416;12.952;2022-10-16T07:26:33;7.95;;;2.92;;
64375;SDS011;50700;55.416;12.952;2022-10-16T07:29:00;6.43;;;2.70;;
64375;SDS011;50700;55.416;12.952;2022-10-16T07:31:27;9.80;;;2.80;;
64375;SDS011;50700;55.416;12.952;2022-10-16T07:33:53;8.15;;;2.60;;
64375;SDS011;50700;55.416;12.952;2022-10-16T07:36:20;9.30;;;2.72;;
64375;SDS011;50700;55.416;12.952;2022-10-16T07:38:46;5.32;;;2.47;;
64375;SDS011;50700;55.416;12.952;2022-10-16T07:41:13;6.85;;;2.67;;
64375;SDS011;50700;55.416;12.952;2022-10-16T07:43:40;7.35;;;2.33;;
64375;SDS011;50700;55.416;12.952;2022-10-16T07:46:10;4.95;;;2.30;;
64375;SDS011;50700;55.416;12.952;2022-10-16T07:48:37;5.07;;;2.30;;
64375;SDS011;50700;55.416;12.952;2022-10-16T07:51:04;5.82;;;2.38;;
64375;SDS011;50700;55.416;12.952;2022-10-16T07:53:30;4.45;;;2.22;;
64375;SDS011;50700;55.416;12.952;2022-10-16T07:55:58;6.32;;;2.28;;
64375;SDS011;50700;55.416;12.952;2022-10-16T07:58:25;4.55;;;2.20;;
64375;SDS011;50700;55.416;12.952;2022-10-16T08:00:51;6.28;;;2.13;;
64375;SDS011;50700;55.416;12.952;2022-10-16T08:03:17;6.88;;;2.33;;
64375;SDS011;50700;55.416;12.952;2022-10-16T08:05:44;6.32;;;3.15;;
64375;SDS011;50700;55.416;12.952;2022-10-16T08:08:13;4.90;;;2.03;;
64375;SDS011;50700;55.416;12.952;2022-10-16T08:10:40;8.93;;;1.80;;
64375;SDS011;50700;55.416;12.952;2022-10-16T08:13:06;9.88;;;2.20;;
64375;SDS011;50700;55.416;12.952;2022-10-16T08:15:32;6.80;;;2.17;;
64375;SDS011;50700;55.416;12.952;2022-10-16T08:17:59;3.42;;;1.98;;
64375;SDS011;50700;55.416;12.952;2022-10-16T08:20:26;6.32;;;1.80;;
64375;SDS011;50700;55.416;12.952;2022-10-16T08:22:53;3.88;;;2.03;;
64375;SDS011;50700;55.416;12.952;2022-10-16T08:25:20;2.53;;;1.48;;
64375;SDS011;50700;55.416;12.952;2022-10-16T08:27:47;4.88;;;1.85;;
64375;SDS011;50700;55.416;12.952;2022-10-16T08:30:13;3.80;;;2.22;;
64375;SDS011;50700;55.416;12.952;2022-10-16T08:32:40;5.97;;;2.08;;
64375;SDS011;50700;55.416;12.952;2022-10-16T08:35:08;5.75;;;1.77;;
64375;SDS011;50700;55.416;12.952;2022-10-16T08:37:35;9.63;;;2.53;;
64375;SDS011;50700;55.416;12.952;2022-10-16T08:40:01;5.68;;;2.00;;
64375;SDS011;50700;55.416;12.952;2022-10-16T08:42:46;8.10;;;2.00;;
64375;SDS011;50700;55.416;12.952;2022-10-16T08:45:40;5.40;;;1.80;;
64375;SDS011;50700;55.416;12.952;2022-10-16T08:50:36;3.97;;;1.83;;
64375;SDS011;50700;55.416;12.952;2022-10-16T08:53:03;9.35;;;2.38;;
64375;SDS011;50700;55.416;12.952;2022-10-16T08:55:33;4.97;;;1.42;;
64375;SDS011;50700;55.416;12.952;2022-10-16T08:58:08;7.00;;;1.88;;
64375;SDS011;50700;55.416;12.952;2022-10-16T09:00:36;7.85;;;2.35;;
64375;SDS011;50700;55.416;12.952;2022-10-16T09:13:09;9.65;;;1.95;;
64375;SDS011;50700;55.416;12.952;2022-10-16T09:18:19;5.38;;;2.00;;
64375;SDS011;50700;55.416;12.952;2022-10-16T09:20:51;4.88;;;1.50;;
64375;SDS011;50700;55.416;12.952;2022-10-16T09:23:22;7.82;;;2.03;;
64375;SDS011;50700;55.416;12.952;2022-10-16T09:25:51;4.43;;;1.60;;
64375;SDS011;50700;55.416;12.952;2022-10-16T09:28:18;5.85;;;1.30;;
64375;SDS011;50700;55.416;12.952;2022-10-16T09:30:45;4.07;;;1.50;;
64375;SDS011;50700;55.416;12.952;2022-10-16T09:33:13;3.53;;;1.65;;
64375;SDS011;50700;55.416;12.952;2022-10-16T09:35:42;8.30;;;1.92;;
64375;SDS011;50700;55.416;12.952;2022-10-16T09:38:09;7.57;;;1.70;;
64375;SDS011;50700;55.416;12.952;2022-10-16T09:40:46;6.30;;;1.33;;
64375;SDS011;50700;55.416;12.952;2022-10-16T09:45:38;3.95;;;1.55;;
64375;SDS011;50700;55.416;12.952;2022-10-16T09:48:11;4.95;;;1.30;;
64375;SDS011;50700;55.416;12.952;2022-10-16T09:50:38;7.60;;;1.65;;
64375;SDS011;50700;55.416;12.952;2022-10-16T09:53:05;6.78;;;1.85;;
64375;SDS011;50700;55.416;12.952;2022-10-16T09:55:32;8.20;;;2.13;;
64375;SDS011;50700;55.416;12.952;2022-10-16T09:57:58;4.05;;;1.40;;
64375;SDS011;50700;55.416;12.952;2022-10-16T10:00:24;4.85;;;1.70;;
64375;SDS011;50700;55.416;12.952;2022-10-16T10:02:51;4.20;;;1.30;;
64375;SDS011;50700;55.416;12.952;2022-10-16T10:05:20;4.38;;;1.58;;
64375;SDS011;50700;55.416;12.952;2022-10-16T10:07:53;3.03;;;1.15;;
64375;SDS011;50700;55.416;12.952;2022-10-16T10:10:21;9.07;;;1.52;;
64375;SDS011;50700;55.416;12.952;2022-10-16T10:12:48;6.93;;;1.60;;
64375;SDS011;50700;55.416;12.952;2022-10-16T10:15:14;9.75;;;1.63;;
64375;SDS011;50700;55.416;12.952;2022-10-16T10:17:51;5.28;;;1.92;;
64375;SDS011;50700;55.416;12.952;2022-10-16T10:22:53;5.95;;;2.58;;
64375;SDS011;50700;55.416;12.952;2022-10-16T10:35:33;3.97;;;1.58;;
64375;SDS011;50700;55.416;12.952;2022-10-16T10:48:10;7.22;;;1.50;;
64375;SDS011;50700;55.416;12.952;2022-10-16T10:53:30;3.40;;;1.55;;
64375;SDS011;50700;55.416;12.952;2022-10-16T11:01:20;5.15;;;1.85;;
64375;SDS011;50700;55.416;12.952;2022-10-16T11:03:57;6.47;;;2.00;;
64375;SDS011;50700;55.416;12.952;2022-10-16T11:06:36;5.90;;;1.65;;
64375;SDS011;50700;55.416;12.952;2022-10-16T11:09:10;4.57;;;1.48;;
64375;SDS011;50700;55.416;12.952;2022-10-16T11:11:40;10.27;;;1.63;;
64375;SDS011;50700;55.416;12.952;2022-10-16T11:16:48;2.42;;;1.42;;
64375;SDS011;50700;55.416;12.952;2022-10-16T11:21:56;2.08;;;1.55;;
64375;SDS011;50700;55.416;12.952;2022-10-16T11:24:31;9.10;;;2.00;;
64375;SDS011;50700;55.416;12.952;2022-10-16T11:27:03;8.15;;;2.42;;
64375;SDS011;50700;55.416;12.952;2022-10-16T11:29:30;4.90;;;1.92;;
64375;SDS011;50700;55.416;12.952;2022-10-16T11:32:00;2.78;;;1.35;;
64375;SDS011;50700;55.416;12.952;2022-10-16T11:37:10;2.25;;;1.30;;
64375;SDS011;50700;55.416;12.952;2022-10-16T11:39:38;4.35;;;2.10;;
64375;SDS011;50700;55.416;12.952;2022-10-16T11:42:11;5.60;;;1.40;;
64375;SDS011;50700;55.416;12.952;2022-10-16T11:47:43;3.88;;;1.30;;
64375;SDS011;50700;55.416;12.952;2022-10-16T11:50:19;5.45;;;1.67;;
64375;SDS011;50700;55.416;12.952;2022-10-16T11:52:55;5.05;;;1.65;;
64375;SDS011;50700;55.416;12.952;2022-10-16T11:55:24;9.27;;;1.40;;
64375;SDS011;50700;55.416;12.952;2022-10-16T11:58:00;7.68;;;1.90;;
64375;SDS011;50700;55.416;12.952;2022-10-16T12:00:28;6.88;;;1.40;;
64375;SDS011;50700;55.416;12.952;2022-10-16T12:03:20;2.38;;;1.40;;
64375;SDS011;50700;55.416;12.952;2022-10-16T12:05:55;3.75;;;1.55;;
64375;SDS011;50700;55.416;12.952;2022-10-16T12:08:24;3.47;;;1.50;;
64375;SDS011;50700;55.416;12.952;2022-10-16T12:10:50;4.70;;;1.30;;
64375;SDS011;50700;55.416;12.952;2022-10-16T12:13:30;6.93;;;1.77;;
64375;SDS011;50700;55.416;12.952;2022-10-16T12:18:32;1.40;;;1.20;;
64375;SDS011;50700;55.416;12.952;2022-10-16T12:20:59;3.08;;;1.67;;
64375;SDS011;50700;55.416;12.952;2022-10-16T12:24:05;5.80;;;1.48;;
64375;SDS011;50700;55.416;12.952;2022-10-16T12:26:37;4.50;;;1.50;;
64375;SDS011;50700;55.416;12.952;2022-10-16T12:31:49;7.40;;;1.52;;
64375;SDS011;50700;55.416;12.952;2022-10-16T12:34:20;3.65;;;1.70;;
64375;SDS011;50700;55.416;12.952;2022-10-16T12:36:47;3.73;;;1.57;;
64375;SDS011;50700;55.416;12.952;2022-10-16T12:39:20;3.83;;;1.40;;
64375;SDS011;50700;55.416;12.952;2022-10-16T12:44:25;7.63;;;1.77;;
64375;SDS011;50700;55.416;12.952;2022-10-16T12:46:51;5.93;;;1.42;;
64375;SDS011;50700;55.416;12.952;2022-10-16T12:49:21;5.00;;;1.33;;
64375;SDS011;50700;55.416;12.952;2022-10-16T12:51:49;5.57;;;1.42;;
64375;SDS011;50700;55.416;12.952;2022-10-16T12:54:17;12.32;;;1.50;;
64375;SDS011;50700;55.416;12.952;2022-10-16T13:12:55;5.90;;;1.60;;
64375;SDS011;50700;55.416;12.952;2022-10-16T13:15:27;5.40;;;1.60;;
64375;SDS011;50700;55.416;12.952;2022-10-16T13:20:33;8.80;;;1.73;;
64375;SDS011;50700;55.416;12.952;2022-10-16T13:23:11;8.60;;;2.30;;
64375;SDS011;50700;55.416;12.952;2022-10-16T13:28:27;5.85;;;1.80;;
64375;SDS011;50700;55.416;12.952;2022-10-16T13:30:55;4.55;;;1.73;;
64375;SDS011;50700;55.416;12.952;2022-10-16T13:33:41;7.93;;;2.78;;
64375;SDS011;50700;55.416;12.952;2022-10-16T13:36:18;5.03;;;1.83;;
64375;SDS011;50700;55.416;12.952;2022-10-16T13:38:45;5.28;;;1.70;;
64375;SDS011;50700;55.416;12.952;2022-10-16T13:41:17;5.80;;;1.30;;
64375;SDS011;50700;55.416;12.952;2022-10-16T13:43:52;6.50;;;1.70;;
64375;SDS011;50700;55.416;12.952;2022-10-16T13:46:19;6.28;;;1.73;;
64375;SDS011;50700;55.416;12.952;2022-10-16T13:48:56;12.75;;;1.60;;
64375;SDS011;50700;55.416;12.952;2022-10-16T13:51:23;4.97;;;1.42;;
64375;SDS011;50700;55.416;12.952;2022-10-16T13:53:49;6.35;;;1.83;;
64375;SDS011;50700;55.416;12.952;2022-10-16T13:56:17;6.90;;;1.70;;
64375;SDS011;50700;55.416;12.952;2022-10-16T13:58:44;8.00;;;1.67;;
64375;SDS011;50700;55.416;12.952;2022-10-16T14:01:20;7.22;;;1.95;;
64375;SDS011;50700;55.416;12.952;2022-10-16T14:03:49;7.28;;;1.55;;
64375;SDS011;50700;55.416;12.952;2022-10-16T14:06:20;3.65;;;1.50;;
64375;SDS011;50700;55.416;12.952;2022-10-16T14:09:09;10.43;;;1.88;;
64375;SDS011;50700;55.416;12.952;2022-10-16T14:11:34;7.15;;;1.63;;
64375;SDS011;50700;55.416;12.952;2022-10-16T14:14:03;8.32;;;1.70;;
64375;SDS011;50700;55.416;12.952;2022-10-16T14:16:30;12.93;;;1.70;;
64375;SDS011;50700;55.416;12.952;2022-10-16T14:19:03;7.18;;;1.88;;
64375;SDS011;50700;55.416;12.952;2022-10-16T14:21:35;9.15;;;1.95;;
64375;SDS011;50700;55.416;12.952;2022-10-16T14:24:12;9.38;;;1.52;;
64375;SDS011;50700;55.416;12.952;2022-10-16T14:26:42;6.80;;;1.65;;
64375;SDS011;50700;55.416;12.952;2022-10-16T14:29:13;7.35;;;1.80;;
64375;SDS011;50700;55.416;12.952;2022-10-16T14:31:41;9.80;;;1.67;;
64375;SDS011;50700;55.416;12.952;2022-10-16T14:37:22;7.30;;;1.92;;
64375;SDS011;50700;55.416;12.952;2022-10-16T14:39:52;3.95;;;1.60;;
64375;SDS011;50700;55.416;12.952;2022-10-16T14:42:20;6.10;;;1.60;;
64375;SDS011;50700;55.416;12.952;2022-10-16T14:44:49;7.50;;;1.60;;
64375;SDS011;50700;55.416;12.952;2022-10-16T14:47:18;4.90;;;1.50;;
64375;SDS011;50700;55.416;12.952;2022-10-16T14:49:50;4.80;;;1.67;;
64375;SDS011;50700;55.416;12.952;2022-10-16T14:52:18;7.15;;;2.00;;
64375;SDS011;50700;55.416;12.952;2022-10-16T14:54:47;6.07;;;1.75;;
64375;SDS011;50700;55.416;12.952;2022-10-16T14:57:18;4.55;;;1.65;;
64375;SDS011;50700;55.416;12.952;2022-10-16T14:59:44;8.48;;;1.83;;
64375;SDS011;50700;55.416;12.952;2022-10-16T15:04:40;5.50;;;1.55;;
64375;SDS011;50700;55.416;12.952;2022-10-16T15:07:07;4.88;;;1.50;;
64375;SDS011;50700;55.416;12.952;2022-10-16T15:09:33;8.05;;;1.80;;
64375;SDS011;50700;55.416;12.952;2022-10-16T15:11:59;5.38;;;2.28;;
64375;SDS011;50700;55.416;12.952;2022-10-16T15:14:26;9.40;;;1.92;;
64375;SDS011;50700;55.416;12.952;2022-10-16T15:16:52;7.00;;;1.52;;
64375;SDS011;50700;55.416;12.952;2022-10-16T15:19:18;9.73;;;2.65;;
64375;SDS011;50700;55.416;12.952;2022-10-16T15:21:44;9.50;;;1.75;;
64375;SDS011;50700;55.416;12.952;2022-10-16T15:24:12;8.98;;;2.00;;
64375;SDS011;50700;55.416;12.952;2022-10-16T15:26:38;6.43;;;2.03;;
64375;SDS011;50700;55.416;12.952;2022-10-16T15:29:05;7.72;;;1.70;;
64375;SDS011;50700;55.416;12.952;2022-10-16T15:31:32;9.38;;;1.83;;
64375;SDS011;50700;55.416;12.952;2022-10-16T15:33:58;7.82;;;1.90;;
64375;SDS011;50700;55.416;12.952;2022-10-16T15:36:30;12.40;;;1.90;;
64375;SDS011;50700;55.416;12.952;2022-10-16T15:38:58;5.70;;;1.80;;
64375;SDS011;50700;55.416;12.952;2022-10-16T15:41:25;10.43;;;1.90;;
64375;SDS011;50700;55.416;12.952;2022-10-16T15:43:51;7.25;;;1.75;;
64375;SDS011;50700;55.416;12.952;2022-10-16T15:46:18;7.63;;;1.60;;
64375;SDS011;50700;55.416;12.952;2022-10-16T15:48:46;8.00;;;2.55;;
64375;SDS011;50700;55.416;12.952;2022-10-16T15:51:12;8.32;;;2.10;;
64375;SDS011;50700;55.416;12.952;2022-10-16T15:53:39;10.10;;;1.70;;
64375;SDS011;50700;55.416;12.952;2022-10-16T15:56:05;3.47;;;1.30;;
64375;SDS011;50700;55.416;12.952;2022-10-16T15:58:32;7.68;;;1.83;;
64375;SDS011;50700;55.416;12.952;2022-10-16T16:00:59;5.93;;;1.50;;
64375;SDS011;50700;55.416;12.952;2022-10-16T16:03:27;3.60;;;2.08;;
64375;SDS011;50700;55.416;12.952;2022-10-16T16:05:53;9.07;;;1.80;;
64375;SDS011;50700;55.416;12.952;2022-10-16T16:08:20;7.22;;;2.00;;
64375;SDS011;50700;55.416;12.952;2022-10-16T16:10:56;7.03;;;2.03;;
64375;SDS011;50700;55.416;12.952;2022-10-16T16:13:22;6.93;;;2.10;;
64375;SDS011;50700;55.416;12.952;2022-10-16T16:15:49;7.65;;;1.85;;
64375;SDS011;50700;55.416;12.952;2022-10-16T16:18:15;6.18;;;1.83;;
64375;SDS011;50700;55.416;12.952;2022-10-16T16:20:41;6.82;;;1.30;;
64375;SDS011;50700;55.416;12.952;2022-10-16T16:23:07;4.55;;;1.75;;
64375;SDS011;50700;55.416;12.952;2022-10-16T16:25:33;10.82;;;1.70;;
64375;SDS011;50700;55.416;12.952;2022-10-16T16:28:00;10.18;;;2.63;;
64375;SDS011;50700;55.416;12.952;2022-10-16T16:30:26;7.13;;;1.38;;